createdAt,value
2019-02-25T16:13:43.266Z,14.07
2019-02-25T16:16:12.452Z,12.97
2019-02-25T16:18:42.691Z,13.07
2019-02-25T16:21:13.278Z,11.43
2019-02-25T16:23:43.092Z,12.03
2019-02-25T16:26:17.789Z,12.83
2019-02-25T16:28:46.779Z,11.50
2019-02-25T16:31:16.429Z,12.37
2019-02-25T16:33:47.074Z,12.17
2019-02-25T16:36:17.827Z,11.47
2019-02-25T16:38:46.600Z,12.40
2019-02-25T16:41:17.132Z,12.43
2019-02-25T16:43:47.133Z,24.50
2019-02-25T16:46:17.873Z,12.57
2019-02-25T16:48:48.377Z,11.63
2019-02-25T16:51:19.221Z,12.60
2019-02-25T16:53:51.845Z,13.07
2019-02-25T16:56:20.417Z,12.87
2019-02-25T16:58:52.198Z,13.97
2019-02-25T17:01:21.190Z,12.67
2019-02-25T17:03:50.165Z,16.32
2019-02-25T17:06:19.027Z,13.80
2019-02-25T17:08:50.942Z,14.10
2019-02-25T17:11:21.770Z,13.60
2019-02-25T17:13:53.029Z,13.30
2019-02-25T17:16:24.163Z,14.13
2019-02-25T17:18:54.030Z,14.90
2019-02-25T17:21:22.878Z,15.47
2019-02-25T17:23:54.088Z,13.93
2019-02-25T17:26:23.322Z,15.80
2019-02-25T17:28:54.493Z,14.83
2019-02-25T17:31:23.918Z,15.53
2019-02-25T17:33:53.637Z,15.90
2019-02-25T17:36:24.208Z,16.83
2019-02-25T17:38:53.908Z,15.97
2019-02-25T17:41:23.764Z,16.37
2019-02-25T17:43:52.729Z,15.27
2019-02-25T17:46:22.741Z,17.17
2019-02-25T17:48:52.196Z,15.70
2019-02-25T17:51:23.009Z,17.23
2019-02-25T17:53:54.813Z,18.40
2019-02-25T17:56:25.235Z,19.97
2019-02-25T17:58:55.844Z,19.47
2019-02-25T18:01:26.286Z,18.63
2019-02-25T18:03:55.555Z,17.90
2019-02-25T18:06:29.511Z,18.13
2019-02-25T18:08:57.706Z,16.50
2019-02-25T18:11:28.234Z,15.83
2019-02-25T18:13:57.820Z,15.80
2019-02-25T18:16:28.716Z,14.50
2019-02-25T18:19:00.277Z,15.47
2019-02-25T18:21:29.520Z,15.67
2019-02-25T18:23:58.880Z,16.10
2019-02-25T18:26:30.949Z,15.00
2019-02-25T18:29:01.222Z,15.67
2019-02-25T18:31:31.449Z,14.20
2019-02-25T18:34:00.343Z,15.67
2019-02-25T18:36:31.122Z,15.37
2019-02-25T18:39:01.628Z,14.87
2019-02-25T18:41:34.045Z,15.40
2019-02-25T18:44:01.533Z,16.27
2019-02-25T18:46:31.160Z,16.00
2019-02-25T18:49:00.776Z,15.93
2019-02-25T18:51:30.564Z,15.37
2019-02-25T18:54:02.049Z,15.43
2019-02-25T18:56:33.654Z,16.83
2019-02-25T18:59:10.918Z,17.10
2019-02-25T19:01:38.540Z,16.40
2019-02-25T19:04:07.632Z,15.27
2019-02-25T19:06:39.201Z,16.53
2019-02-25T19:09:18.223Z,16.30
2019-02-25T19:11:49.113Z,15.27
2019-02-25T19:14:21.791Z,15.63
2019-02-25T19:16:52.672Z,17.20
2019-02-25T19:19:21.869Z,17.33
2019-02-25T19:21:52.167Z,17.27
2019-02-25T19:24:21.737Z,19.07
2019-02-25T19:26:51.313Z,19.17
2019-02-25T19:29:21.787Z,19.20
2019-02-25T19:31:52.487Z,20.10
2019-02-25T19:34:22.031Z,17.53
2019-02-25T19:36:51.252Z,17.87
2019-02-25T19:39:21.717Z,18.13
2019-02-25T19:41:51.340Z,18.13
2019-02-25T19:44:21.428Z,17.60
2019-02-25T19:46:51.276Z,18.47
2019-02-25T19:49:22.800Z,18.27
2019-02-25T19:51:52.726Z,17.63
2019-02-25T19:54:21.721Z,17.80
2019-02-25T19:56:53.189Z,17.53
2019-02-25T19:59:24.029Z,18.70
2019-02-25T20:01:53.624Z,17.23
2019-02-25T20:04:22.925Z,18.27
2019-02-25T20:06:53.716Z,18.53
2019-02-25T20:09:23.616Z,19.63
2019-02-25T20:11:53.392Z,19.77
2019-02-25T20:14:22.472Z,19.17
2019-02-25T20:16:51.848Z,19.77
2019-02-25T20:19:20.831Z,19.13
2019-02-25T20:21:52.054Z,20.00
2019-02-25T20:24:21.745Z,20.43
2019-02-25T20:26:55.074Z,18.80
2019-02-25T20:29:24.631Z,20.77
2019-02-25T20:31:55.957Z,20.67
2019-02-25T20:34:28.082Z,20.73
2019-02-25T20:36:59.877Z,20.70
2019-02-25T20:39:29.404Z,22.60
2019-02-25T20:41:58.695Z,21.97
2019-02-25T20:44:31.088Z,21.23
2019-02-25T20:47:01.950Z,21.27
2019-02-25T20:49:32.293Z,20.83
2019-02-25T20:52:01.303Z,22.27
2019-02-25T20:54:30.540Z,22.70
2019-02-25T20:57:01.351Z,23.80
2019-02-25T20:59:32.519Z,22.90
2019-02-25T21:02:01.728Z,24.07
2019-02-25T21:04:31.828Z,21.67
2019-02-25T21:07:02.618Z,20.80
2019-02-25T21:09:35.797Z,20.70
2019-02-25T21:12:07.884Z,22.67
2019-02-25T21:14:40.300Z,21.90
2019-02-25T21:17:09.168Z,21.87
2019-02-25T21:19:39.880Z,23.17
2019-02-25T21:22:09.324Z,23.40
2019-02-25T21:24:41.453Z,22.20
2019-02-25T21:27:10.605Z,22.77
2019-02-25T21:29:41.207Z,22.40
2019-02-25T21:32:13.091Z,29.10
2019-02-25T21:34:41.227Z,23.27
2019-02-25T21:37:10.760Z,23.50
2019-02-25T21:39:40.858Z,24.67
2019-02-25T21:42:14.769Z,21.57
2019-02-25T21:44:46.165Z,22.90
2019-02-25T21:47:12.472Z,21.87
2019-02-25T21:49:42.685Z,22.50
2019-02-25T21:52:15.400Z,21.83
2019-02-25T21:54:45.053Z,22.20
2019-02-25T21:57:16.704Z,22.40
2019-02-25T21:59:48.360Z,22.07
2019-02-25T22:02:18.072Z,21.53
2019-02-25T22:04:48.131Z,20.93
2019-02-25T22:07:24.232Z,20.90
2019-02-25T22:09:49.003Z,19.33
2019-02-25T22:12:17.922Z,22.43
2019-02-25T22:14:47.773Z,21.07
2019-02-25T22:17:20.626Z,21.10
2019-02-25T22:19:50.208Z,22.03
2019-02-25T22:22:24.154Z,21.57
2019-02-25T22:24:50.220Z,22.53
2019-02-25T22:27:21.234Z,22.50
2019-02-25T22:29:52.303Z,22.30
2019-02-25T22:32:21.793Z,21.47
2019-02-25T22:34:51.926Z,23.87
2019-02-25T22:37:22.785Z,22.17
2019-02-25T22:39:54.543Z,23.73
2019-02-25T22:42:25.312Z,23.47
2019-02-25T22:44:56.188Z,22.03
2019-02-25T22:47:25.335Z,22.87
2019-02-25T22:49:54.707Z,23.07
2019-02-25T22:52:26.271Z,24.33
2019-02-25T22:54:54.467Z,21.80
2019-02-25T22:57:25.332Z,23.37
2019-02-25T22:59:54.993Z,22.43
2019-02-25T23:02:27.308Z,21.93
2019-02-25T23:04:56.284Z,23.90
2019-02-25T23:07:25.310Z,22.23
2019-02-25T23:09:55.019Z,24.13
2019-02-25T23:12:26.665Z,21.57
2019-02-25T23:14:56.518Z,24.47
2019-02-25T23:17:26.796Z,23.20
2019-02-25T23:19:58.478Z,23.73
2019-02-25T23:22:30.194Z,23.97
2019-02-25T23:24:59.667Z,23.60
2019-02-25T23:27:30.122Z,25.03
2019-02-25T23:30:00.259Z,23.17
2019-02-25T23:32:30.288Z,23.57
2019-02-25T23:35:00.555Z,23.57
2019-02-25T23:37:29.520Z,22.67
2019-02-25T23:40:02.594Z,25.07
2019-02-25T23:42:33.084Z,22.97
2019-02-25T23:45:03.900Z,24.00
2019-02-25T23:47:35.261Z,23.87
2019-02-25T23:50:06.974Z,24.63
2019-02-25T23:52:37.560Z,24.03
2019-02-25T23:55:07.561Z,25.30
2019-02-25T23:57:36.498Z,22.00
